Time;durP1;ratioP1;P1;durP2;ratioP2;P2;SDS_P1;SDS_P2;PMS_P1;PMS_P2;Temp;Humidity;BMP_temperature;BMP_pressure;BME280_temperature;BME280_humidity;BME280_pressure;Samples;Min_cycle;Max_cycle;Signal;HPM_P1;HPM_P2
2023/05/03 00:01:14;;;;;;;9.40;6.10;;;;;;;11.76;nan;100210.31;5001736;28;20238;-80
2023/05/03 00:03:40;;;;;;;7.70;5.30;;;;;;;11.74;nan;100219.13;5001687;28;20231;-79
2023/05/03 00:06:10;;;;;;;8.70;6.23;;;;;;;11.74;nan;100211.25;5001795;28;20253;-81
2023/05/03 00:08:35;;;;;;;9.73;5.55;;;;;;;11.76;nan;100219.06;5005190;28;20656;-80
2023/05/03 00:11:01;;;;;;;5.60;5.10;;;;;;;11.74;nan;100213.03;5007341;28;20329;-80
2023/05/03 00:13:26;;;;;;;9.73;5.30;;;;;;;11.74;nan;100224.41;5003795;28;20693;-81
2023/05/03 00:15:51;;;;;;;6.07;4.60;;;;;;;11.70;nan;100222.91;5004111;28;20213;-79
2023/05/03 00:18:17;;;;;;;7.60;6.33;;;;;;;11.66;nan;100213.47;5004777;28;20219;-80
2023/05/03 00:20:42;;;;;;;7.90;5.47;;;;;;;11.59;nan;100216.56;5007456;28;20219;-81
2023/05/03 00:23:08;;;;;;;8.60;5.43;;;;;;;11.56;nan;100222.00;5005601;28;20303;-80
2023/05/03 00:25:33;;;;;;;10.37;5.37;;;;;;;11.54;nan;100224.72;5005578;28;20222;-79
2023/05/03 00:27:59;;;;;;;8.77;6.10;;;;;;;11.52;nan;100226.59;5002869;28;20246;-80
2023/05/03 00:30:24;;;;;;;8.50;5.30;;;;;;;11.43;nan;100217.44;5004079;28;20265;-80
2023/05/03 00:32:50;;;;;;;10.83;6.40;;;;;;;11.38;nan;100223.91;5004526;28;20222;-81
2023/05/03 00:35:16;;;;;;;7.20;5.73;;;;;;;11.32;nan;100217.22;5004871;28;20293;-79
2023/05/03 00:37:41;;;;;;;9.10;4.87;;;;;;;11.28;nan;100219.16;5006695;28;21020;-80
2023/05/03 00:40:07;;;;;;;10.63;5.83;;;;;;;11.24;nan;100222.06;5001603;28;20230;-80
2023/05/03 00:42:35;;;;;;;12.30;7.05;;;;;;;11.18;nan;100214.50;5002758;28;20226;-80
2023/05/03 00:45:03;;;;;;;7.18;5.57;;;;;;;11.16;nan;100208.50;5005009;28;20218;-80
2023/05/03 00:47:30;;;;;;;10.50;6.40;;;;;;;11.13;nan;100206.91;5005521;28;20762;-80
2023/05/03 00:49:55;;;;;;;20.83;7.27;;;;;;;11.13;nan;100208.69;5006805;28;20230;-79
2023/05/03 00:52:21;;;;;;;7.97;5.50;;;;;;;11.10;nan;100201.81;5002887;28;20469;-80
2023/05/03 00:54:46;;;;;;;10.20;6.10;;;;;;;11.07;nan;100196.72;5003580;28;20226;-80
2023/05/03 00:57:12;;;;;;;8.10;5.20;;;;;;;11.06;nan;100201.13;5018826;28;20237;-80
2023/05/03 00:59:38;;;;;;;12.27;5.83;;;;;;;11.07;nan;100207.22;5008137;28;20215;-80
2023/05/03 01:02:04;;;;;;;9.20;6.70;;;;;;;11.04;nan;100207.41;5003526;28;20584;-80
2023/05/03 01:04:30;;;;;;;8.37;5.43;;;;;;;11.03;nan;100213.59;5005259;28;20258;-81
2023/05/03 01:07:29;;;;;;;9.47;6.90;;;;;;;11.02;nan;100210.13;5004974;28;20462;-80
2023/05/03 01:10:07;;;;;;;8.60;5.80;;;;;;;10.99;nan;100212.06;5004224;28;20230;-79
2023/05/03 01:13:09;;;;;;;8.00;6.53;;;;;;;10.99;nan;100212.94;5005690;28;20222;-80
2023/05/03 01:15:52;;;;;;;7.60;6.22;;;;;;;10.98;nan;100213.00;5004686;28;20234;-79
2023/05/03 01:18:28;;;;;;;8.93;5.70;;;;;;;10.95;nan;100206.13;4999044;28;20233;-80
2023/05/03 01:20:55;;;;;;;7.47;6.30;;;;;;;10.93;nan;100204.53;5002513;28;20444;-80
2023/05/03 01:23:45;;;;;;;10.23;6.57;;;;;;;10.88;nan;100199.50;5002486;28;20245;-80
2023/05/03 01:26:16;;;;;;;11.55;7.30;;;;;;;10.83;nan;100196.31;5004982;28;22986;-80
2023/05/03 01:28:42;;;;;;;7.53;5.60;;;;;;;10.79;nan;100193.00;4999305;28;20214;-80
2023/05/03 01:31:09;;;;;;;7.53;6.80;;;;;;;10.78;nan;100191.31;5004181;28;20724;-80
2023/05/03 01:34:22;;;;;;;9.52;6.57;;;;;;;10.79;nan;100198.25;5002317;28;20206;-80
2023/05/03 01:36:48;;;;;;;8.23;5.95;;;;;;;10.74;nan;100199.44;4946622;28;20737;-80
2023/05/03 01:39:34;;;;;;;9.20;6.57;;;;;;;10.70;nan;100187.41;4991088;28;20224;-80
2023/05/03 01:42:02;;;;;;;9.48;6.38;;;;;;;10.64;nan;100183.34;5002564;28;20212;-79
2023/05/03 01:44:29;;;;;;;13.63;7.65;;;;;;;10.61;nan;100188.75;5004912;28;20599;-80
2023/05/03 01:46:56;;;;;;;11.50;7.05;;;;;;;10.59;nan;100186.22;5008417;28;20243;-80
2023/05/03 01:49:21;;;;;;;10.48;7.55;;;;;;;10.59;nan;100195.88;5008338;28;20602;-80
2023/05/03 01:51:47;;;;;;;11.27;7.70;;;;;;;10.54;nan;100188.25;5007386;28;20224;-80
2023/05/03 01:54:12;;;;;;;8.60;7.23;;;;;;;10.52;nan;100190.09;5005526;28;20208;-80
2023/05/03 01:56:38;;;;;;;10.77;7.97;;;;;;;10.49;nan;100192.06;5007702;28;20235;-80
2023/05/03 01:59:03;;;;;;;9.47;7.20;;;;;;;10.47;nan;100197.38;5007480;28;20207;-80
2023/05/03 02:01:30;;;;;;;11.23;7.63;;;;;;;10.45;nan;100188.75;5012114;28;20243;-80
2023/05/03 02:03:55;;;;;;;10.10;8.70;;;;;;;10.44;nan;100186.19;5015876;28;20209;-81
2023/05/03 02:06:20;;;;;;;12.73;9.10;;;;;;;10.36;nan;100189.22;5010662;28;20201;-80
2023/05/03 02:08:46;;;;;;;11.57;7.80;;;;;;;10.30;nan;100192.19;5007113;28;20228;-80
2023/05/03 02:11:11;;;;;;;10.23;6.30;;;;;;;10.25;nan;100187.13;5006789;28;20600;-80
2023/05/03 02:13:37;;;;;;;9.43;7.50;;;;;;;10.23;nan;100189.00;5004524;28;20282;-80
2023/05/03 02:16:03;;;;;;;10.45;7.55;;;;;;;10.23;nan;100177.66;5004277;28;20242;-80
2023/05/03 02:18:32;;;;;;;10.40;6.83;;;;;;;10.19;nan;100182.22;5006143;28;20206;-79
2023/05/03 02:20:57;;;;;;;12.38;7.68;;;;;;;10.14;nan;100182.44;5005444;28;20218;-80
2023/05/03 02:23:23;;;;;;;13.40;7.23;;;;;;;10.11;nan;100184.41;5006395;28;20210;-80
2023/05/03 02:25:48;;;;;;;9.03;6.40;;;;;;;10.09;nan;100183.63;5007881;28;20207;-80
2023/05/03 02:28:14;;;;;;;11.40;7.23;;;;;;;10.08;nan;100179.31;5006915;28;20703;-80
2023/05/03 02:30:40;;;;;;;9.30;7.57;;;;;;;10.07;nan;100180.22;5007371;28;20738;-81
2023/05/03 02:33:05;;;;;;;9.33;7.40;;;;;;;10.04;nan;100172.50;5005155;28;20203;-80
2023/05/03 02:35:30;;;;;;;11.70;7.73;;;;;;;10.01;nan;100177.94;5004094;28;20221;-80
2023/05/03 02:37:56;;;;;;;9.10;7.50;;;;;;;10.03;nan;100174.31;5001336;28;20683;-80
2023/05/03 02:40:21;;;;;;;10.50;7.37;;;;;;;10.05;nan;100174.22;5002577;28;20199;-80
2023/05/03 02:42:47;;;;;;;11.47;8.70;;;;;;;10.06;nan;100176.75;5000493;28;20458;-80
2023/05/03 02:45:16;;;;;;;11.40;8.45;;;;;;;10.06;nan;100175.91;5000148;28;20438;-80
2023/05/03 02:47:42;;;;;;;11.90;8.63;;;;;;;10.03;nan;100171.69;5004513;28;20191;-80
2023/05/03 02:50:08;;;;;;;12.90;8.97;;;;;;;9.96;nan;100170.28;5002464;28;20233;-80
2023/05/03 02:52:37;;;;;;;11.07;8.68;;;;;;;9.92;nan;100176.63;4998033;28;20207;-81
2023/05/03 02:55:03;;;;;;;13.80;8.13;;;;;;;9.91;nan;100170.56;5000207;28;20199;-80
2023/05/03 02:57:28;;;;;;;14.73;7.70;;;;;;;9.91;nan;100172.28;5000166;28;20276;-80
2023/05/03 02:59:55;;;;;;;11.70;8.18;;;;;;;9.89;nan;100176.81;4998738;28;20985;-80
2023/05/03 03:02:21;;;;;;;11.97;7.67;;;;;;;9.85;nan;100191.84;5001676;28;20186;-80
2023/05/03 03:04:47;;;;;;;11.38;8.10;;;;;;;9.79;nan;100179.03;4998611;28;20430;-80
2023/05/03 03:07:12;;;;;;;11.07;7.83;;;;;;;9.74;nan;100188.91;4999439;28;20591;-80
2023/05/03 03:09:37;;;;;;;14.40;8.60;;;;;;;9.72;nan;100190.75;4998797;28;20675;-80
2023/05/03 03:12:03;;;;;;;12.03;8.53;;;;;;;9.71;nan;100186.44;5000434;28;20225;-80
2023/05/03 03:14:29;;;;;;;13.37;7.57;;;;;;;9.67;nan;100198.03;4999978;28;20203;-80
2023/05/03 03:16:54;;;;;;;11.03;6.63;;;;;;;9.65;nan;100192.84;5001334;28;20196;-79
2023/05/03 03:19:20;;;;;;;10.40;8.53;;;;;;;9.65;nan;100190.22;4999647;28;20224;-80
2023/05/03 03:21:45;;;;;;;14.73;7.47;;;;;;;9.65;nan;100186.78;5000685;28;20305;-80
2023/05/03 03:24:11;;;;;;;11.33;6.83;;;;;;;9.63;nan;100186.00;4999863;28;20651;-79
2023/05/03 03:26:38;;;;;;;12.38;8.07;;;;;;;9.64;nan;100185.06;5001970;28;20196;-79
2023/05/03 03:29:03;;;;;;;10.93;7.40;;;;;;;9.60;nan;100189.63;4982888;28;20590;-80
2023/05/03 03:31:29;;;;;;;13.03;8.20;;;;;;;9.58;nan;100191.47;5000203;28;20222;-80
2023/05/03 03:33:55;;;;;;;9.25;7.00;;;;;;;9.55;nan;100193.41;5001698;28;20896;-80
2023/05/03 03:36:22;;;;;;;10.40;8.20;;;;;;;9.48;nan;100183.22;5002142;28;20190;-80
2023/05/03 03:38:47;;;;;;;11.00;7.70;;;;;;;9.45;nan;100193.88;5005145;28;20202;-80
2023/05/03 03:41:13;;;;;;;11.70;8.70;;;;;;;9.43;nan;100197.50;4999759;28;20262;-79
2023/05/03 03:43:39;;;;;;;12.40;8.77;;;;;;;9.38;nan;100189.00;4999449;28;20450;-79
2023/05/03 03:46:10;;;;;;;11.13;7.55;;;;;;;9.34;nan;100193.53;4998594;28;20662;-80
2023/05/03 03:48:35;;;;;;;15.33;9.63;;;;;;;9.29;nan;100187.69;4997826;28;20249;-80
2023/05/03 03:51:01;;;;;;;10.20;7.57;;;;;;;9.25;nan;100188.75;4997757;28;20370;-80
2023/05/03 03:53:33;;;;;;;9.75;7.82;;;;;;;9.26;nan;100199.16;4997753;28;20210;-79
2023/05/03 03:55:59;;;;;;;13.50;8.50;;;;;;;9.26;nan;100201.78;4997870;28;20191;-79
2023/05/03 03:58:25;;;;;;;11.43;8.47;;;;;;;9.21;nan;100205.56;4999311;28;20694;-80
2023/05/03 04:00:51;;;;;;;13.25;9.40;;;;;;;9.15;nan;100197.97;4998421;28;20207;-80
2023/05/03 04:03:19;;;;;;;13.23;8.43;;;;;;;9.08;nan;100197.44;4999667;28;20199;-80
2023/05/03 04:05:46;;;;;;;9.75;8.38;;;;;;;9.03;nan;100200.25;4997178;28;20570;-80
2023/05/03 04:08:12;;;;;;;12.45;7.50;;;;;;;9.03;nan;100195.03;4997715;28;21132;-79
2023/05/03 04:10:38;;;;;;;9.32;7.68;;;;;;;9.06;nan;100210.59;4997253;28;21302;-79
2023/05/03 04:13:04;;;;;;;9.83;7.80;;;;;;;9.05;nan;100201.03;4997209;28;20208;-80
2023/05/03 04:15:29;;;;;;;11.97;8.73;;;;;;;9.03;nan;100210.75;4999245;28;21123;-79
2023/05/03 04:17:57;;;;;;;10.93;8.38;;;;;;;9.01;nan;100196.00;5006605;28;20612;-80
2023/05/03 04:20:23;;;;;;;15.20;9.10;;;;;;;9.00;nan;100194.31;5005203;28;20679;-79
2023/05/03 04:22:50;;;;;;;12.18;7.65;;;;;;;9.02;nan;100193.34;5003202;28;20843;-80
2023/05/03 04:25:18;;;;;;;13.27;8.68;;;;;;;9.04;nan;100201.09;5005467;28;20231;-80
2023/05/03 04:27:50;;;;;;;13.70;8.50;;;;;;;9.09;nan;100199.13;5002923;28;20322;-80
2023/05/03 04:30:17;;;;;;;11.90;8.48;;;;;;;9.15;nan;100190.94;5004895;28;20310;-80
2023/05/03 04:32:46;;;;;;;14.35;9.30;;;;;;;9.19;nan;100197.75;5004128;28;20261;-79
2023/05/03 04:35:12;;;;;;;14.45;10.23;;;;;;;9.20;nan;100199.44;5002861;28;20487;-80
2023/05/03 04:37:42;;;;;;;19.85;9.75;;;;;;;9.21;nan;100192.44;5001247;28;20202;-78
2023/05/03 04:40:11;;;;;;;14.90;9.13;;;;;;;9.24;nan;100200.16;5002771;28;20672;-80
2023/05/03 04:42:41;;;;;;;11.48;7.63;;;;;;;9.24;nan;100200.16;5004128;28;20208;-80
2023/05/03 04:45:08;;;;;;;10.65;8.40;;;;;;;9.22;nan;100204.63;5002238;28;20272;-80
2023/05/03 04:47:34;;;;;;;12.10;7.75;;;;;;;9.26;nan;100206.16;5008533;28;20279;-79
2023/05/03 04:50:00;;;;;;;16.53;9.67;;;;;;;9.31;nan;100210.25;5003265;28;20310;-79
2023/05/03 04:52:26;;;;;;;11.32;8.32;;;;;;;9.37;nan;100203.88;5002620;28;20473;-79
2023/05/03 04:54:53;;;;;;;13.32;8.02;;;;;;;9.42;nan;100204.47;5001707;28;20303;-80
2023/05/03 04:57:19;;;;;;;13.10;8.65;;;;;;;9.53;nan;100203.94;5003781;28;20195;-80
2023/05/03 04:59:45;;;;;;;13.03;8.17;;;;;;;9.84;nan;100207.66;5001808;28;20595;-80
2023/05/03 05:02:11;;;;;;;14.65;8.75;;;;;;;10.24;nan;100206.47;5005920;28;20204;-79
2023/05/03 05:04:36;;;;;;;11.07;8.30;;;;;;;10.69;nan;100206.72;5002502;28;20197;-80
2023/05/03 05:07:02;;;;;;;12.13;7.57;;;;;;;11.06;nan;100213.44;5007254;28;20208;-79
2023/05/03 05:09:30;;;;;;;11.07;8.20;;;;;;;11.49;nan;100211.00;5004175;28;20313;-80
2023/05/03 05:11:58;;;;;;;11.55;7.20;;;;;;;11.87;nan;100214.03;5001970;28;20793;-79
2023/05/03 05:14:29;;;;;;;11.57;7.68;;;;;;;12.23;nan;100206.66;5001548;28;20304;-80
2023/05/03 05:16:55;;;;;;;9.23;6.97;;;;;;;12.53;nan;100210.06;5005122;28;20223;-80
2023/05/03 05:19:20;;;;;;;11.30;7.53;;;;;;;12.88;nan;100209.63;5005752;28;20660;-79
2023/05/03 05:21:46;;;;;;;9.87;6.70;;;;;;;13.15;nan;100212.28;5004308;28;20220;-79
2023/05/03 05:24:13;;;;;;;13.73;8.30;;;;;;;13.32;nan;100210.38;5004902;28;20765;-80
2023/05/03 05:26:40;;;;;;;9.20;6.50;;;;;;;13.52;nan;100223.09;5006181;28;20242;-81
2023/05/03 05:29:05;;;;;;;10.65;6.47;;;;;;;13.71;nan;100212.16;5008613;28;20228;-80
2023/05/03 05:31:31;;;;;;;9.13;6.97;;;;;;;13.91;nan;100214.31;5005236;28;20228;-80
2023/05/03 05:33:57;;;;;;;8.40;6.97;;;;;;;14.04;nan;100208.16;5004925;28;20198;-80
2023/05/03 05:36:22;;;;;;;12.00;8.73;;;;;;;14.27;nan;100198.66;5007531;28;20444;-80
2023/05/03 05:38:49;;;;;;;8.32;7.15;;;;;;;14.46;nan;100206.16;5007154;28;20204;-80
2023/05/03 05:41:14;;;;;;;11.73;7.97;;;;;;;14.76;nan;100206.66;5010210;28;20203;-79
2023/05/03 05:43:41;;;;;;;9.70;7.63;;;;;;;15.12;nan;100206.75;5008902;28;20238;-79
2023/05/03 05:46:07;;;;;;;13.80;7.67;;;;;;;15.35;nan;100208.56;5022892;28;20280;-79
2023/05/03 05:48:32;;;;;;;12.23;7.85;;;;;;;15.44;nan;100207.84;5006517;28;20208;-80
2023/05/03 05:50:59;;;;;;;9.13;6.70;;;;;;;15.50;nan;100201.28;5008569;28;20215;-80
2023/05/03 05:53:25;;;;;;;13.13;6.90;;;;;;;15.51;nan;100208.25;5007948;28;20343;-80
2023/05/03 05:55:56;;;;;;;14.45;7.28;;;;;;;15.72;nan;100208.50;5010474;28;20203;-79
2023/05/03 05:58:24;;;;;;;9.27;7.43;;;;;;;15.97;nan;100204.81;5007403;28;20491;-80
2023/05/03 06:00:57;;;;;;;11.20;6.40;;;;;;;16.12;nan;100197.47;5003531;28;20215;-80
2023/05/03 06:03:22;;;;;;;13.13;6.93;;;;;;;16.11;nan;100206.41;5007169;28;20209;-79
2023/05/03 06:05:49;;;;;;;9.55;7.10;;;;;;;16.28;nan;100199.78;5005909;28;20438;-80
2023/05/03 06:08:14;;;;;;;10.67;7.33;;;;;;;16.37;nan;100197.28;5005931;28;20223;-79
2023/05/03 06:10:40;;;;;;;11.70;7.50;;;;;;;16.52;nan;100184.59;5007595;28;20293;-79
2023/05/03 06:13:05;;;;;;;9.80;7.30;;;;;;;16.66;nan;100186.19;5008003;28;20207;-79
2023/05/03 06:15:32;;;;;;;11.25;7.25;;;;;;;16.94;nan;100183.97;5006268;28;20201;-80
2023/05/03 06:17:57;;;;;;;9.47;6.30;;;;;;;17.20;nan;100173.88;5008456;28;20215;-80
2023/05/03 06:20:23;;;;;;;9.90;7.43;;;;;;;17.49;nan;100187.41;5009407;28;20208;-79
2023/05/03 06:22:49;;;;;;;9.63;7.05;;;;;;;17.64;nan;100180.81;5006046;28;20237;-80
2023/05/03 06:25:16;;;;;;;10.23;6.40;;;;;;;17.71;nan;100189.09;5003026;28;20477;-80
2023/05/03 06:27:43;;;;;;;11.05;6.45;;;;;;;17.76;nan;100192.22;5011291;28;20937;-80
2023/05/03 06:30:10;;;;;;;8.63;6.55;;;;;;;17.80;nan;100185.72;5004218;28;20262;-79
2023/05/03 06:32:38;;;;;;;7.60;6.68;;;;;;;17.86;nan;100192.31;5001750;28;20183;-79
2023/05/03 06:35:06;;;;;;;11.40;7.45;;;;;;;18.07;nan;100192.31;5004753;28;20209;-80
2023/05/03 06:37:31;;;;;;;11.00;6.88;;;;;;;18.17;nan;100184.38;5003467;28;20223;-80
2023/05/03 06:39:57;;;;;;;10.20;7.13;;;;;;;18.19;nan;100183.25;5006421;28;20751;-80
2023/05/03 06:42:22;;;;;;;10.50;6.57;;;;;;;18.11;nan;100178.59;5006621;28;20210;-81
2023/05/03 06:44:53;;;;;;;13.32;7.32;;;;;;;17.99;nan;100181.50;5003926;28;20405;-79
2023/05/03 06:47:20;;;;;;;7.80;6.93;;;;;;;17.91;nan;100168.84;5005055;28;20400;-80
2023/05/03 06:49:46;;;;;;;8.98;7.13;;;;;;;18.15;nan;100165.91;5007144;28;20393;-79
2023/05/03 06:52:12;;;;;;;8.82;6.93;;;;;;;18.38;nan;100163.88;5005383;28;20202;-80
2023/05/03 06:54:37;;;;;;;12.97;8.57;;;;;;;18.46;nan;100163.22;5006299;28;20221;-79
2023/05/03 06:57:04;;;;;;;12.53;8.20;;;;;;;18.45;nan;100161.56;5004292;28;20227;-80
2023/05/03 06:59:29;;;;;;;11.27;7.45;;;;;;;18.55;nan;100159.75;5004563;28;20217;-80
2023/05/03 07:01:54;;;;;;;10.33;5.90;;;;;;;18.66;nan;100159.66;5004224;28;20589;-81
2023/05/03 07:04:20;;;;;;;8.17;6.50;;;;;;;18.78;nan;100150.59;5004577;28;20196;-80
2023/05/03 07:06:45;;;;;;;8.17;6.80;;;;;;;18.91;nan;100147.69;5003511;28;20228;-79
2023/05/03 07:09:10;;;;;;;7.67;6.90;;;;;;;19.10;nan;100136.22;5004896;28;20596;-79
2023/05/03 07:11:38;;;;;;;11.67;7.07;;;;;;;19.33;nan;100138.59;5002923;28;20425;-79
2023/05/03 07:14:03;;;;;;;12.15;6.88;;;;;;;19.45;nan;100134.81;5006756;28;20226;-80
2023/05/03 07:16:29;;;;;;;9.27;6.97;;;;;;;19.54;nan;100143.75;5001547;28;20208;-81
2023/05/03 07:18:54;;;;;;;11.40;7.77;;;;;;;19.69;nan;100131.72;5001891;28;20232;-81
2023/05/03 07:21:20;;;;;;;12.60;7.00;;;;;;;19.74;nan;100131.25;5001940;28;20274;-81
2023/05/03 07:23:45;;;;;;;11.73;8.33;;;;;;;19.78;nan;100125.50;5002874;28;20697;-79
2023/05/03 07:26:11;;;;;;;12.27;6.93;;;;;;;19.88;nan;100131.66;5005772;28;20208;-79
2023/05/03 07:28:36;;;;;;;7.93;6.60;;;;;;;19.94;nan;100124.06;5006628;28;20205;-80
2023/05/03 07:33:38;;;;;;;11.02;7.20;;;;;;;19.98;nan;100122.78;4978685;28;20470;-88
2023/05/03 07:36:04;;;;;;;10.97;8.70;;;;;;;19.98;nan;100118.31;4989369;28;20446;-87
2023/05/03 07:38:30;;;;;;;9.20;7.80;;;;;;;19.85;nan;100123.97;4978124;28;20464;-88
2023/05/03 07:40:55;;;;;;;10.60;7.07;;;;;;;19.81;nan;100127.06;4998215;28;20487;-88
2023/05/03 07:43:22;;;;;;;14.23;7.50;;;;;;;20.02;nan;100125.03;4989142;28;20671;-87
2023/05/03 07:45:48;;;;;;;9.77;6.67;;;;;;;20.24;nan;100122.97;4989810;28;20224;-85
2023/05/03 07:48:13;;;;;;;10.17;6.90;;;;;;;20.36;nan;100124.47;4991841;28;20458;-85
2023/05/03 07:50:42;;;;;;;9.97;7.50;;;;;;;20.31;nan;100126.75;4989464;28;20979;-85
2023/05/03 07:53:07;;;;;;;12.83;7.63;;;;;;;20.21;nan;100124.09;4969857;28;20616;-85
2023/05/03 07:55:35;;;;;;;13.40;7.87;;;;;;;20.17;nan;100124.53;4989882;28;21090;-85
2023/05/03 07:58:01;;;;;;;15.40;6.67;;;;;;;20.21;nan;100131.28;4989215;28;20335;-85
2023/05/03 08:00:26;;;;;;;10.27;7.40;;;;;;;20.44;nan;100121.03;4989725;28;20465;-87
2023/05/03 08:02:52;;;;;;;7.20;6.37;;;;;;;20.53;nan;100120.16;4990502;28;20298;-87
2023/05/03 08:05:18;;;;;;;12.00;7.90;;;;;;;20.52;nan;100121.13;4987945;28;20442;-86
2023/05/03 08:07:43;;;;;;;9.10;7.10;;;;;;;20.56;nan;100117.22;4989851;28;20191;-86
2023/05/03 08:10:09;;;;;;;11.40;7.90;;;;;;;20.68;nan;100117.84;4989972;28;20825;-87
2023/05/03 08:12:35;;;;;;;9.37;6.80;;;;;;;20.78;nan;100115.94;4990241;28;20617;-87
2023/05/03 08:15:03;;;;;;;9.00;6.50;;;;;;;20.98;nan;100114.84;4988870;28;20575;-86
2023/05/03 08:17:29;;;;;;;10.90;7.57;;;;;;;21.18;nan;100120.00;4989681;28;20828;-86
2023/05/03 08:19:55;;;;;;;9.10;6.63;;;;;;;21.43;nan;100110.38;4991144;28;20495;-86
2023/05/03 08:22:20;;;;;;;10.80;6.73;;;;;;;21.35;nan;100107.63;4989678;28;20207;-86
2023/05/03 08:24:46;;;;;;;8.97;6.87;;;;;;;21.27;nan;100113.72;4987757;28;20483;-86
2023/05/03 08:27:11;;;;;;;11.87;6.50;;;;;;;21.26;nan;100101.38;4989438;28;20243;-86
2023/05/03 08:29:37;;;;;;;9.13;7.20;;;;;;;21.20;nan;100108.19;4972838;28;20207;-86
2023/05/03 08:32:03;;;;;;;8.53;6.93;;;;;;;20.93;nan;100101.09;4989374;28;20312;-86
2023/05/03 08:34:29;;;;;;;7.78;6.80;;;;;;;20.82;nan;100103.13;4990544;28;20439;-87
2023/05/03 08:36:55;;;;;;;8.03;6.50;;;;;;;20.58;nan;100106.38;4989048;28;20573;-87
2023/05/03 08:39:23;;;;;;;9.33;7.77;;;;;;;20.37;nan;100102.13;4989337;28;20198;-86
2023/05/03 08:41:49;;;;;;;8.30;7.20;;;;;;;20.23;nan;100103.47;4990131;28;20514;-86
2023/05/03 08:44:23;;;;;;;8.53;6.33;;;;;;;20.10;nan;100108.28;4990489;28;20502;-86
2023/05/03 08:46:51;;;;;;;10.40;8.10;;;;;;;19.98;nan;100112.97;4991176;28;20923;-86
2023/05/03 08:49:17;;;;;;;10.13;6.50;;;;;;;19.93;nan;100112.56;4988775;28;21013;-87
2023/05/03 08:51:46;;;;;;;10.83;7.60;;;;;;;19.88;nan;100104.16;4988910;28;20549;-87
2023/05/03 08:54:13;;;;;;;9.53;6.83;;;;;;;19.83;nan;100107.25;4986315;28;20987;-87
2023/05/03 08:56:41;;;;;;;11.33;8.43;;;;;;;19.74;nan;100104.59;4990035;28;21000;-86
2023/05/03 08:59:07;;;;;;;7.47;5.80;;;;;;;19.58;nan;100102.53;4989588;28;20581;-86
2023/05/03 09:01:35;;;;;;;9.97;7.47;;;;;;;19.51;nan;100099.59;4987636;28;20458;-86
2023/05/03 09:04:02;;;;;;;11.17;7.43;;;;;;;19.54;nan;100098.47;4989112;28;20476;-86
2023/05/03 09:06:28;;;;;;;10.00;7.50;;;;;;;19.42;nan;100098.63;4991327;28;20470;-86
2023/05/03 09:08:54;;;;;;;8.10;6.90;;;;;;;19.45;nan;100092.19;4988590;28;20530;-86
2023/05/03 09:11:22;;;;;;;8.90;6.67;;;;;;;19.53;nan;100097.63;4989006;28;20212;-87
2023/05/03 09:13:48;;;;;;;10.97;6.87;;;;;;;19.52;nan;100097.75;4994313;28;20458;-86
2023/05/03 09:16:22;;;;;;;10.70;6.87;;;;;;;19.39;nan;100092.75;4989749;28;20681;-86
2023/05/03 09:19:05;;;;;;;10.17;6.93;;;;;;;19.28;nan;100099.06;4989558;28;20807;-87
2023/05/03 09:21:31;;;;;;;9.37;7.63;;;;;;;19.33;nan;100090.63;4992456;28;20688;-86
2023/05/03 09:23:56;;;;;;;8.37;7.30;;;;;;;19.24;nan;100098.50;4996952;28;20438;-86
2023/05/03 09:26:30;;;;;;;7.27;6.57;;;;;;;19.32;nan;100086.31;4989204;28;21030;-87
2023/05/03 09:29:00;;;;;;;11.77;7.43;;;;;;;19.28;nan;100090.22;4990358;28;20200;-87
2023/05/03 09:31:28;;;;;;;10.07;7.60;;;;;;;19.21;nan;100090.78;4992003;28;20868;-86
2023/05/03 09:33:54;;;;;;;9.83;7.77;;;;;;;19.22;nan;100081.81;4994251;28;20609;-87
2023/05/03 09:36:19;;;;;;;11.20;7.47;;;;;;;19.21;nan;100085.47;4989084;28;20483;-86
2023/05/03 09:38:45;;;;;;;9.70;6.77;;;;;;;19.33;nan;100078.16;4991289;28;20455;-87
2023/05/03 09:41:11;;;;;;;9.80;7.00;;;;;;;19.37;nan;100081.41;4990735;28;20203;-87
2023/05/03 09:43:51;;;;;;;7.50;6.37;;;;;;;19.39;nan;100076.78;4988918;28;20215;-88
2023/05/03 09:46:17;;;;;;;10.03;6.23;;;;;;;19.53;nan;100068.31;4990844;28;20599;-87
2023/05/03 09:48:43;;;;;;;8.33;6.90;;;;;;;19.65;nan;100063.66;4990027;28;20471;-87
2023/05/03 09:51:10;;;;;;;9.20;7.47;;;;;;;19.76;nan;100068.00;4992693;28;20484;-87
2023/05/03 09:53:37;;;;;;;12.20;7.97;;;;;;;19.77;nan;100064.38;4989627;28;20278;-86
2023/05/03 09:56:11;;;;;;;8.70;7.00;;;;;;;19.84;nan;100060.94;4990332;28;20497;-87
2023/05/03 09:58:37;;;;;;;9.47;7.00;;;;;;;19.99;nan;100055.97;4991369;28;20779;-87
2023/05/03 10:01:03;;;;;;;9.33;7.50;;;;;;;20.17;nan;100052.53;4989657;28;20494;-87
2023/05/03 10:03:38;;;;;;;9.70;8.17;;;;;;;20.22;nan;100053.75;4989824;28;20522;-86
2023/05/03 10:06:05;;;;;;;9.63;7.40;;;;;;;20.37;nan;100056.78;4990533;28;20941;-88
2023/05/03 10:08:46;;;;;;;9.53;5.90;;;;;;;20.54;nan;100052.47;4992982;28;20198;-87
2023/05/03 10:11:15;;;;;;;9.67;5.83;;;;;;;20.76;nan;100051.19;4992341;28;20481;-87
2023/05/03 10:13:41;;;;;;;8.23;5.80;;;;;;;20.88;nan;100044.63;4995703;28;20699;-87
2023/05/03 10:16:12;;;;;;;8.30;6.57;;;;;;;20.89;nan;100038.28;4990378;28;20768;-86
2023/05/03 10:18:46;;;;;;;9.83;7.00;;;;;;;20.91;nan;100032.81;4994974;28;20959;-87
2023/05/03 10:21:17;;;;;;;8.30;6.50;;;;;;;20.91;nan;100033.66;4994400;28;20486;-87
2023/05/03 10:24:08;;;;;;;9.53;7.03;;;;;;;20.90;nan;100033.78;4996015;28;20453;-86
2023/05/03 10:26:34;;;;;;;11.00;5.83;;;;;;;20.98;nan;100018.69;4996382;28;20422;-87
2023/05/03 10:28:59;;;;;;;7.10;5.60;;;;;;;21.12;nan;100022.63;4993329;28;20481;-86
2023/05/03 10:31:47;;;;;;;7.33;4.30;;;;;;;21.33;nan;100010.72;4993827;28;20323;-87
2023/05/03 10:34:20;;;;;;;7.10;5.07;;;;;;;21.49;nan;100018.06;4994896;28;20225;-86
2023/05/03 10:36:49;;;;;;;6.57;4.70;;;;;;;21.57;nan;100010.06;4995323;28;20456;-85
2023/05/03 10:39:15;;;;;;;8.33;4.70;;;;;;;21.67;nan;100001.94;4993378;28;20462;-87
2023/05/03 10:41:40;;;;;;;6.07;4.63;;;;;;;21.76;nan;100004.50;4995686;28;20863;-86
2023/05/03 10:44:33;;;;;;;5.10;4.33;;;;;;;21.86;nan;99991.84;4993881;28;20966;-86
2023/05/03 10:47:09;;;;;;;5.13;4.03;;;;;;;21.99;nan;99985.22;4992297;28;20278;-86
2023/05/03 10:49:35;;;;;;;7.37;4.27;;;;;;;22.07;nan;99983.38;4995060;28;20540;-86
2023/05/03 10:52:01;;;;;;;5.30;4.80;;;;;;;22.17;nan;99975.25;4994663;28;20472;-85
2023/05/03 10:54:27;;;;;;;5.10;4.50;;;;;;;22.35;nan;99975.13;4993048;28;20512;-86
2023/05/03 10:56:55;;;;;;;5.50;4.27;;;;;;;22.46;nan;99973.97;4994571;28;20437;-85
2023/05/03 10:59:21;;;;;;;6.47;4.50;;;;;;;22.50;nan;99967.28;4994790;28;20408;-86
2023/05/03 11:01:52;;;;;;;3.70;3.20;;;;;;;22.57;nan;99968.28;4993649;28;20476;-87
2023/05/03 11:04:31;;;;;;;6.37;3.70;;;;;;;22.67;nan;99958.25;4988632;28;20468;-87
2023/05/03 11:06:57;;;;;;;5.30;3.73;;;;;;;22.80;nan;99963.09;4993091;28;20429;-87
2023/05/03 11:09:30;;;;;;;3.57;3.03;;;;;;;22.86;nan;99966.97;4993610;28;20459;-87
2023/05/03 11:11:55;;;;;;;5.90;3.30;;;;;;;22.88;nan;99955.06;4994130;28;21076;-87
2023/05/03 11:14:21;;;;;;;3.73;3.43;;;;;;;22.96;nan;99951.59;4991008;28;20424;-86
2023/05/03 11:16:49;;;;;;;6.17;3.83;;;;;;;23.03;nan;99941.84;4991938;28;20446;-86
2023/05/03 11:19:14;;;;;;;4.63;3.87;;;;;;;22.95;nan;99949.84;4993224;28;20203;-86
2023/05/03 11:21:41;;;;;;;4.83;3.30;;;;;;;22.83;nan;99949.38;4987831;28;20487;-86
2023/05/03 11:24:06;;;;;;;4.60;3.70;;;;;;;22.60;nan;99941.19;4993364;28;20281;-87
2023/05/03 11:26:38;;;;;;;5.27;4.50;;;;;;;22.40;nan;99935.31;4996929;28;20483;-86
2023/05/03 11:29:04;;;;;;;6.17;4.63;;;;;;;22.25;nan;99951.19;5010914;28;20210;-86
2023/05/03 11:31:30;;;;;;;3.37;3.03;;;;;;;22.23;nan;99945.16;4993614;28;20462;-87
2023/05/03 11:33:56;;;;;;;6.40;4.33;;;;;;;22.27;nan;99948.34;4996530;28;20536;-87
2023/05/03 11:36:21;;;;;;;6.63;4.83;;;;;;;22.33;nan;99934.28;4993095;28;20413;-87
2023/05/03 11:38:47;;;;;;;7.00;5.40;;;;;;;22.41;nan;99926.28;4994220;28;20231;-86
2023/05/03 11:41:15;;;;;;;5.00;3.73;;;;;;;22.48;nan;99937.16;4994674;28;20213;-87
2023/05/03 11:43:42;;;;;;;6.23;3.70;;;;;;;22.56;nan;99923.78;4994551;28;20260;-86